Aeroporto :
LOGIN :

Iscrizione | Disclaimer

   EN    FR    IT 

 










Sommario :    VFR   VFR Marginale   IFR   IFR Intensivo   IFR Molto Intensivo
Visibilità : 
Base nubi : 
>= 8 km
>= 3000ft
5 / 8 km
1000 / 3000 ft
1500m / 5 km
500 / 1000 ft
800 / 1500m
200 / 500 ft
< 800m
< 200 ft
Simboli :   Temporali  Nebbia  Neve Forte  Precipitazioni Forti  Vento > 20 kt
SIGMETs :   Varie  Temporali  Ghiacco  Turbolenza  Onda orograficha  Ceneri Vulcaniche






- Altitudine del aeroporto : 16 ft
- Codice IATA : SDR


LEXJ - Santander Cantabria

ULTIMO METAR :
  • 222330Z AUTO 29006KT 9000 SCT069 12/08 Q0984

METARs OBSOLETI :
  • 222300Z AUTO 26006KT 220V330 8000 SCT070 14/08 Q0983
  • 222230Z AUTO 25007KT 200V290 8000 NSC 14/07 Q0983
  • 222200Z 23011KT 170V260 9999 FEW070 15/06 Q0983
  • 222130Z 23009KT 180V270 9999 FEW065 15/06 Q0982
  • 222100Z 23010KT 170V290 9999 FEW065 15/07 Q0982

TAF TAF LEXJ
Valido dal 22 a 21 ore il 23 a 21 ore UTC


222000Z 2221/2321 24012KT 9999 SCT020 BKN035 TX12/2311Z TN09/2300Z
TEMPO 2221/2303 24015G25KT
BECMG 2300/2303 27018G30KT
TEMPO 2301/2318 27025G43KT
TEMPO 2303/2310 28030G53KT
TEMPO 2302/2321 3000 RA SHRA BKN010 SCT025TCU
TEMPO 2303/2308 1500 +SHRA BKN025TCU



MetMap, La meteo Aeronautica in un colpo d'occhio ! - Copyright ORBIFLY Dicembre 2007 - Disclaimer

ORBIFLY MET'MAP TEAM :

Programmazione e sviluppo : Alexandra Zaïnal
Concezione e sviluppo : Baudouin d'Aumeries
Co-Programmazione e sviluppo : Marc-Olivier Méhu
Supporto tecnico e logistico : Manuel Goepfert
Aiuto per la traduzione : Arnaldo La Scala

Contatto : metmap@orbifly.com




FONTI E CREDITI :

   NOAA